Elevon, Virginia
Current Conditions -  °F | °C
As of 11:15 PM on Thursday 27 Nov 2014 (Local Time) from KXSA Reporting Station
Clear Clear  
Wind Chill: 32°   Ceiling: Unl
Heat Index: 32°   Visibility: 10mi
Dew Point: 29°   Wind: 0mph
Humidity: 88%   Direction: NA
Pressure: 30.2"   Gusts: NA
Location:  38.03°N, 76.9626°W
Report Text: KXSA 280415Z AUTO 00000KT 10SM CLR 00/M02 A3020 RMK AO2 T00001017
Loading
Personal Weather Stations






























Interactive Weather Map New forecast layout! Learn more

10-Day Weather Forecast

Advertisements
Track Severe Weather on mobile